createdAt,value
2022-12-04T00:00:32.446Z,8
2022-12-04T00:03:03.216Z,11
2022-12-04T00:05:33.702Z,8
2022-12-04T00:08:04.259Z,8
2022-12-04T00:10:34.776Z,8
2022-12-04T00:13:05.171Z,5
2022-12-04T00:15:36.579Z,8
2022-12-04T00:18:06.885Z,8
2022-12-04T00:20:37.724Z,8
2022-12-04T00:23:09.159Z,5
2022-12-04T00:25:41.455Z,8
2022-12-04T00:28:11.639Z,8
2022-12-04T00:30:43.231Z,8
2022-12-04T00:33:14.204Z,8
2022-12-04T00:35:45.429Z,8
2022-12-04T00:38:17.039Z,8
2022-12-04T00:40:48.039Z,7
2022-12-04T00:43:18.704Z,8
2022-12-04T00:45:49.888Z,8
2022-12-04T00:48:20.864Z,4
2022-12-04T00:50:51.612Z,8
2022-12-04T00:53:22.363Z,9
2022-12-04T00:55:53.110Z,8
2022-12-04T00:58:23.788Z,8
2022-12-04T01:00:55.127Z,8
2022-12-04T01:03:25.764Z,8
2022-12-04T01:05:56.421Z,8
2022-12-04T01:08:27.032Z,8
2022-12-04T01:10:58.078Z,8
2022-12-04T01:13:29.127Z,8
2022-12-04T01:16:00.203Z,5
2022-12-04T01:18:30.876Z,8
2022-12-04T01:21:02.037Z,8
2022-12-04T01:23:32.823Z,8
2022-12-04T01:26:03.833Z,8
2022-12-04T01:28:34.768Z,8
2022-12-04T01:31:05.543Z,6
2022-12-04T01:33:36.825Z,7
2022-12-04T01:36:07.782Z,8
2022-12-04T01:38:38.379Z,7
2022-12-04T01:41:09.180Z,4
2022-12-04T01:43:40.845Z,8
2022-12-04T01:46:12.248Z,7
2022-12-04T01:48:43.437Z,4
2022-12-04T01:51:15.086Z,12
2022-12-04T01:53:46.354Z,8
2022-12-04T01:56:17.358Z,4
2022-12-04T01:58:49.407Z,12
2022-12-04T02:01:20.395Z,4
2022-12-04T02:03:51.252Z,8
2022-12-04T02:06:22.184Z,8
2022-12-04T02:08:52.727Z,4
2022-12-04T02:11:23.511Z,4
2022-12-04T02:13:54.095Z,4
2022-12-04T02:16:24.966Z,5
2022-12-04T02:18:55.932Z,4
2022-12-04T02:21:26.718Z,4
2022-12-04T02:23:57.909Z,4
2022-12-04T02:26:31.084Z,4
2022-12-04T02:29:02.262Z,4
2022-12-04T02:31:32.038Z,4
2022-12-04T02:34:03.194Z,4
2022-12-04T02:36:34.599Z,4
2022-12-04T02:39:05.990Z,4
2022-12-04T02:41:37.551Z,4
2022-12-04T02:44:08.440Z,4
2022-12-04T02:46:39.261Z,4
2022-12-04T02:49:10.184Z,4
2022-12-04T02:51:41.498Z,1
2022-12-04T02:54:12.882Z,4
2022-12-04T02:56:44.408Z,4
2022-12-04T02:59:16.191Z,4
2022-12-04T03:01:47.058Z,4
2022-12-04T03:04:17.746Z,4
2022-12-04T03:06:48.044Z,4
2022-12-04T03:09:19.335Z,0
2022-12-04T03:11:50.126Z,3
2022-12-04T03:14:21.405Z,4
2022-12-04T03:16:52.432Z,4
2022-12-04T03:19:23.541Z,0
2022-12-04T03:21:54.840Z,4
2022-12-04T03:24:26.131Z,3
2022-12-04T03:26:56.981Z,4
2022-12-04T03:29:28.518Z,4
2022-12-04T03:31:59.888Z,3
2022-12-04T03:34:30.836Z,2
2022-12-04T03:37:02.193Z,3
2022-12-04T03:39:33.529Z,4
2022-12-04T03:42:04.232Z,4
2022-12-04T03:44:34.917Z,4
2022-12-04T03:47:06.384Z,4
2022-12-04T03:49:37.857Z,2
2022-12-04T03:52:09.490Z,1
2022-12-04T03:54:40.836Z,4
2022-12-04T03:57:11.823Z,4
2022-12-04T03:59:43.211Z,4
2022-12-04T04:02:14.094Z,4
2022-12-04T04:04:45.596Z,4
2022-12-04T04:07:16.388Z,4
2022-12-04T04:09:47.441Z,0
2022-12-04T04:12:18.049Z,4
2022-12-04T04:14:49.017Z,4
2022-12-04T04:17:20.046Z,4
2022-12-04T04:19:51.840Z,4
2022-12-04T04:22:23.216Z,0
2022-12-04T04:24:53.732Z,2
2022-12-04T04:27:24.398Z,4
2022-12-04T04:29:55.769Z,4
2022-12-04T04:32:26.621Z,4
2022-12-04T04:34:57.855Z,4
2022-12-04T04:37:29.438Z,0
2022-12-04T04:40:00.555Z,2
2022-12-04T04:42:31.583Z,0
2022-12-04T04:45:02.766Z,4
2022-12-04T04:47:33.892Z,0
2022-12-04T04:50:04.687Z,4
2022-12-04T04:52:35.079Z,0
2022-12-04T04:55:06.241Z,4
2022-12-04T04:57:37.233Z,4
2022-12-04T05:00:07.773Z,4
2022-12-04T05:02:39.289Z,4
2022-12-04T05:05:10.434Z,3
2022-12-04T05:07:41.800Z,4
2022-12-04T05:10:12.897Z,4
2022-12-04T05:12:43.735Z,4
2022-12-04T05:15:15.223Z,4
2022-12-04T05:17:46.738Z,4
2022-12-04T05:20:17.878Z,4
2022-12-04T05:22:48.516Z,4
2022-12-04T05:25:20.217Z,4
2022-12-04T05:27:51.027Z,4
2022-12-04T05:30:22.596Z,4
2022-12-04T05:32:53.377Z,7
2022-12-04T05:35:24.176Z,4
2022-12-04T05:37:54.868Z,7
2022-12-04T05:40:25.479Z,4
2022-12-04T05:42:56.355Z,4
2022-12-04T05:45:27.854Z,4
2022-12-04T05:47:58.466Z,4
2022-12-04T05:50:29.147Z,5
2022-12-04T05:53:00.416Z,6
2022-12-04T05:55:31.190Z,8
2022-12-04T05:58:01.966Z,5
2022-12-04T06:00:33.188Z,8
2022-12-04T06:03:04.074Z,8
2022-12-04T06:05:34.666Z,4
2022-12-04T06:08:05.481Z,7
2022-12-04T06:10:36.498Z,4
2022-12-04T06:13:07.840Z,8
2022-12-04T06:15:38.736Z,7
2022-12-04T06:18:09.553Z,4
2022-12-04T06:20:40.700Z,4
2022-12-04T06:23:09.792Z,4
2022-12-04T06:25:40.960Z,6
2022-12-04T06:28:11.638Z,6
2022-12-04T06:30:43.292Z,4
2022-12-04T06:33:14.273Z,4
2022-12-04T06:35:44.941Z,9
2022-12-04T06:38:15.781Z,8
2022-12-04T06:40:47.563Z,7
2022-12-04T06:43:18.505Z,13
2022-12-04T06:45:49.397Z,8
2022-12-04T06:48:20.443Z,7
2022-12-04T06:50:55.504Z,8
2022-12-04T06:53:25.989Z,4
2022-12-04T06:55:56.818Z,6
2022-12-04T06:58:28.295Z,12
2022-12-04T07:00:59.002Z,12
2022-12-04T07:03:29.483Z,12
2022-12-04T07:06:00.537Z,8
2022-12-04T07:08:31.572Z,4
2022-12-04T07:11:02.202Z,9
2022-12-04T07:13:33.427Z,12
2022-12-04T07:16:04.150Z,4
2022-12-04T07:18:34.724Z,6
2022-12-04T07:21:06.070Z,6
2022-12-04T07:23:37.104Z,4
2022-12-04T07:26:08.182Z,8
2022-12-04T07:28:39.740Z,6
2022-12-04T07:31:10.758Z,8
2022-12-04T07:33:42.915Z,8
2022-12-04T07:36:13.583Z,8
2022-12-04T07:38:43.187Z,8
2022-12-04T07:41:13.818Z,8
2022-12-04T07:43:44.501Z,4
2022-12-04T07:46:15.523Z,4
2022-12-04T07:48:46.530Z,8
2022-12-04T07:51:17.608Z,5
2022-12-04T07:53:48.764Z,5
2022-12-04T07:56:19.760Z,20
2022-12-04T07:58:50.720Z,8
2022-12-04T08:01:21.791Z,5
2022-12-04T08:03:53.536Z,8
2022-12-04T08:06:25.005Z,7
2022-12-04T08:08:55.889Z,8
2022-12-04T08:11:26.769Z,6
2022-12-04T08:13:58.071Z,12
2022-12-04T08:16:29.393Z,10
2022-12-04T08:18:59.891Z,12
2022-12-04T08:21:31.140Z,8
2022-12-04T08:24:01.950Z,4
2022-12-04T08:26:33.209Z,6
2022-12-04T08:29:04.622Z,12
2022-12-04T08:31:36.059Z,8
2022-12-04T08:34:06.438Z,8
2022-12-04T08:36:37.517Z,4
2022-12-04T08:39:08.427Z,7
2022-12-04T08:41:39.744Z,6
2022-12-04T08:44:10.747Z,8
2022-12-04T08:46:42.461Z,14
2022-12-04T08:49:13.438Z,4
2022-12-04T08:51:45.422Z,4
2022-12-04T08:54:16.444Z,9
2022-12-04T08:56:47.897Z,8
2022-12-04T08:59:19.137Z,8
2022-12-04T09:01:51.036Z,5
2022-12-04T09:04:22.175Z,8
2022-12-04T09:06:52.990Z,4
2022-12-04T09:09:24.321Z,9
2022-12-04T09:11:55.338Z,8
2022-12-04T09:14:26.588Z,12
2022-12-04T09:16:58.736Z,12
2022-12-04T09:19:29.953Z,8
2022-12-04T09:22:02.398Z,8
2022-12-04T09:24:33.587Z,12
2022-12-04T09:27:07.610Z,16
2022-12-04T09:29:35.829Z,8
2022-12-04T09:32:07.520Z,9
2022-12-04T09:34:51.137Z,4
2022-12-04T09:37:18.403Z,10
2022-12-04T09:39:50.363Z,8
2022-12-04T09:42:20.823Z,8
2022-12-04T09:44:51.771Z,8
2022-12-04T09:47:23.065Z,12
2022-12-04T09:49:54.553Z,16
2022-12-04T09:52:26.277Z,14
2022-12-04T09:54:58.374Z,12
2022-12-04T09:57:29.333Z,12
2022-12-04T10:00:00.479Z,12
2022-12-04T10:02:32.074Z,8
2022-12-04T10:05:02.072Z,11
2022-12-04T10:07:33.412Z,12
2022-12-04T10:10:04.629Z,12
2022-12-04T10:12:35.800Z,4
2022-12-04T10:15:06.951Z,8
2022-12-04T10:17:36.831Z,8
2022-12-04T10:20:08.446Z,8
2022-12-04T10:22:39.733Z,8
2022-12-04T10:25:11.480Z,8
2022-12-04T10:27:43.485Z,8
2022-12-04T10:30:14.638Z,5
2022-12-04T10:32:46.387Z,8
2022-12-04T10:35:17.678Z,8
2022-12-04T10:37:49.030Z,16
2022-12-04T10:40:21.141Z,8
2022-12-04T10:42:52.362Z,8
2022-12-04T10:45:23.753Z,8
2022-12-04T10:47:55.758Z,5
2022-12-04T10:50:27.127Z,12
2022-12-04T10:52:58.599Z,8
2022-12-04T10:55:30.161Z,11
2022-12-04T10:58:00.924Z,12
2022-12-04T11:00:32.083Z,11
2022-12-04T11:03:05.132Z,4
2022-12-04T11:05:36.418Z,8
2022-12-04T11:08:07.792Z,7
2022-12-04T11:10:38.968Z,12
2022-12-04T11:13:10.547Z,12
2022-12-04T11:15:41.833Z,8
2022-12-04T11:18:13.516Z,8
2022-12-04T11:20:46.941Z,4
2022-12-04T11:23:17.113Z,8
2022-12-04T11:25:48.286Z,4
2022-12-04T11:28:40.096Z,8
2022-12-04T11:30:51.187Z,12
2022-12-04T11:33:22.313Z,12
2022-12-04T11:35:53.518Z,8
2022-12-04T11:38:24.509Z,10
2022-12-04T11:40:55.535Z,20
2022-12-04T11:43:26.794Z,27
2022-12-04T11:45:58.296Z,8
2022-12-04T11:48:29.156Z,9
2022-12-04T11:51:00.449Z,11
2022-12-04T11:53:31.797Z,12
2022-12-04T11:56:03.166Z,15
2022-12-04T11:58:34.281Z,13
2022-12-04T12:01:05.764Z,12
2022-12-04T12:03:37.493Z,11
2022-12-04T12:06:09.577Z,8
2022-12-04T12:08:41.439Z,8
2022-12-04T12:11:13.885Z,12
2022-12-04T12:13:46.019Z,12
2022-12-04T12:16:16.951Z,10
2022-12-04T12:18:48.031Z,10
2022-12-04T12:21:19.454Z,8
2022-12-04T12:23:50.632Z,8
2022-12-04T12:26:22.385Z,8
2022-12-04T12:28:54.287Z,16
2022-12-04T12:31:25.980Z,16
2022-12-04T12:33:58.343Z,8
2022-12-04T12:36:29.740Z,21
2022-12-04T12:39:01.758Z,12
2022-12-04T12:41:33.974Z,20
2022-12-04T12:44:04.772Z,16
2022-12-04T12:46:35.544Z,16
2022-12-04T12:49:06.930Z,28
2022-12-04T12:51:38.034Z,23
2022-12-04T12:54:09.717Z,28
2022-12-04T12:56:44.762Z,36
2022-12-04T12:59:13.247Z,20
2022-12-04T13:01:44.578Z,8
2022-12-04T13:04:15.554Z,15
2022-12-04T13:06:47.111Z,16
2022-12-04T13:09:18.812Z,11
2022-12-04T13:11:55.607Z,12
2022-12-04T13:14:27.185Z,16
2022-12-04T13:16:58.534Z,15
2022-12-04T13:19:29.843Z,14
2022-12-04T13:22:01.866Z,16
2022-12-04T13:24:34.495Z,15
2022-12-04T13:27:05.215Z,12
2022-12-04T13:29:36.296Z,24
2022-12-04T13:32:07.311Z,12
2022-12-04T13:34:39.228Z,8
2022-12-04T13:37:08.647Z,8
2022-12-04T13:39:40.409Z,12
2022-12-04T13:42:11.382Z,12
2022-12-04T13:44:43.377Z,8
2022-12-04T13:47:14.638Z,8
2022-12-04T13:49:44.431Z,8
2022-12-04T13:52:15.851Z,16
2022-12-04T13:54:46.697Z,8
2022-12-04T13:57:18.640Z,8
2022-12-04T13:59:50.352Z,12
2022-12-04T14:02:21.484Z,12
2022-12-04T14:04:53.717Z,11
2022-12-04T14:07:24.311Z,10
2022-12-04T14:09:55.183Z,12
2022-12-04T14:12:26.373Z,8
2022-12-04T14:14:58.610Z,8
2022-12-04T14:17:29.831Z,5
2022-12-04T14:20:06.018Z,8
2022-12-04T14:22:32.393Z,12
2022-12-04T14:25:03.631Z,11
2022-12-04T14:27:34.840Z,15
2022-12-04T14:30:05.855Z,16
2022-12-04T14:32:37.492Z,16
2022-12-04T14:35:08.774Z,9
2022-12-04T14:37:40.194Z,12
2022-12-04T14:40:12.958Z,8
2022-12-04T14:42:44.071Z,16
2022-12-04T14:45:15.755Z,4
2022-12-04T14:47:47.360Z,8
2022-12-04T14:50:18.285Z,12
2022-12-04T14:52:49.198Z,12
2022-12-04T14:55:20.860Z,13
2022-12-04T14:57:52.201Z,16
2022-12-04T15:00:23.698Z,12
2022-12-04T15:02:54.737Z,20
2022-12-04T15:05:24.593Z,23
2022-12-04T15:07:55.915Z,18
2022-12-04T15:10:28.085Z,16
2022-12-04T15:12:59.793Z,10
2022-12-04T15:15:31.864Z,16
2022-12-04T15:18:03.548Z,20
2022-12-04T15:20:38.978Z,8
2022-12-04T15:23:06.797Z,12
2022-12-04T15:25:38.622Z,16
2022-12-04T15:28:09.760Z,8
2022-12-04T15:30:40.893Z,17
2022-12-04T15:33:15.222Z,8
2022-12-04T15:35:42.775Z,8
2022-12-04T15:38:14.792Z,12
2022-12-04T15:40:46.308Z,8
2022-12-04T15:43:17.254Z,12
2022-12-04T15:45:48.273Z,8
2022-12-04T15:48:19.847Z,8
2022-12-04T15:50:52.011Z,14
2022-12-04T15:53:22.216Z,5
2022-12-04T15:55:53.952Z,12
2022-12-04T15:58:25.487Z,12
2022-12-04T16:00:56.896Z,10
2022-12-04T16:03:28.902Z,8
2022-12-04T16:06:00.452Z,8
2022-12-04T16:08:31.462Z,8
2022-12-04T16:11:02.152Z,8
2022-12-04T16:13:33.184Z,10
2022-12-04T16:16:04.409Z,14
2022-12-04T16:18:35.776Z,8
2022-12-04T16:21:06.920Z,8
2022-12-04T16:23:38.470Z,4
2022-12-04T16:26:10.283Z,12
2022-12-04T16:28:41.478Z,23
2022-12-04T16:31:12.895Z,19
2022-12-04T16:33:43.690Z,9
2022-12-04T16:36:15.487Z,16
2022-12-04T16:38:46.235Z,11
2022-12-04T16:41:17.171Z,12
2022-12-04T16:43:48.666Z,10
2022-12-04T16:46:19.742Z,19
2022-12-04T16:48:51.136Z,8
2022-12-04T16:51:23.035Z,12
2022-12-04T16:53:53.759Z,12
2022-12-04T16:56:24.928Z,12
2022-12-04T16:58:55.798Z,12
2022-12-04T17:01:26.834Z,17
2022-12-04T17:03:58.560Z,20
2022-12-04T17:06:29.235Z,21
2022-12-04T17:08:59.961Z,21
2022-12-04T17:11:31.380Z,20
2022-12-04T17:14:00.841Z,24
2022-12-04T17:16:30.176Z,24
2022-12-04T17:19:01.094Z,20
2022-12-04T17:21:32.163Z,16
2022-12-04T17:24:02.876Z,16
2022-12-04T17:26:33.878Z,16
2022-12-04T17:29:04.907Z,16
2022-12-04T17:31:36.223Z,12
2022-12-04T17:34:06.926Z,16
2022-12-04T17:36:37.692Z,9
2022-12-04T17:39:08.660Z,12
2022-12-04T17:41:39.805Z,16
2022-12-04T17:44:09.736Z,8
2022-12-04T17:49:16.366Z,14
2022-12-04T17:51:47.580Z,16
2022-12-04T17:54:18.670Z,10
2022-12-04T17:56:53.447Z,12
2022-12-04T17:59:21.276Z,16
2022-12-04T18:01:52.468Z,12
2022-12-04T18:04:23.196Z,8
2022-12-04T18:06:54.442Z,12
2022-12-04T18:09:25.623Z,16
2022-12-04T18:11:56.572Z,18
2022-12-04T18:14:27.695Z,9
2022-12-04T18:16:59.211Z,20
2022-12-04T18:19:30.628Z,8
2022-12-04T18:22:01.623Z,15
2022-12-04T18:24:32.331Z,20
2022-12-04T18:27:03.774Z,11
2022-12-04T18:29:34.639Z,12
2022-12-04T18:32:05.866Z,12
2022-12-04T18:34:37.008Z,12
2022-12-04T18:37:07.011Z,16
2022-12-04T18:39:37.653Z,8
2022-12-04T18:42:08.860Z,12
2022-12-04T18:44:39.943Z,10
2022-12-04T18:47:15.327Z,8
2022-12-04T18:49:46.265Z,9
2022-12-04T18:52:17.533Z,10
2022-12-04T18:54:48.905Z,12
2022-12-04T18:57:20.380Z,12
2022-12-04T18:59:51.450Z,8
2022-12-04T19:02:23.117Z,8
2022-12-04T19:04:53.710Z,9
2022-12-04T19:07:28.024Z,12
2022-12-04T19:10:14.782Z,8
2022-12-04T19:12:30.127Z,8
2022-12-04T19:15:01.736Z,8
2022-12-04T19:17:33.112Z,12
2022-12-04T19:20:04.224Z,12
2022-12-04T19:22:35.377Z,13
2022-12-04T19:25:06.603Z,12
2022-12-04T19:27:37.429Z,12
2022-12-04T19:30:08.285Z,11
2022-12-04T19:32:39.612Z,16
2022-12-04T19:35:11.131Z,15
2022-12-04T19:37:52.551Z,12
2022-12-04T19:40:13.964Z,10
2022-12-04T19:42:45.693Z,12
2022-12-04T19:45:16.878Z,12
2022-12-04T19:47:48.280Z,14
2022-12-04T19:50:19.678Z,12
2022-12-04T19:52:50.696Z,8
2022-12-04T19:55:22.074Z,12
2022-12-04T19:57:53.553Z,8
2022-12-04T20:00:24.712Z,16
2022-12-04T20:02:55.906Z,12
2022-12-04T20:10:36.133Z,12
2022-12-04T20:13:07.181Z,8
2022-12-04T20:15:38.098Z,12
2022-12-04T20:18:09.258Z,14
2022-12-04T20:20:40.466Z,16
2022-12-04T20:23:11.679Z,12
2022-12-04T20:28:17.513Z,12
2022-12-04T20:30:48.870Z,12
2022-12-04T20:33:19.924Z,12
2022-12-04T20:35:51.896Z,12
2022-12-04T20:38:23.269Z,12
2022-12-04T20:40:54.545Z,8
2022-12-04T20:43:25.706Z,8
2022-12-04T20:45:57.229Z,8
2022-12-04T20:48:31.453Z,8
2022-12-04T20:51:02.995Z,8
2022-12-04T20:53:34.359Z,8
2022-12-04T20:56:05.743Z,8
2022-12-04T20:58:36.769Z,8
2022-12-04T21:01:08.111Z,5
2022-12-04T21:03:39.346Z,8
2022-12-04T21:06:10.361Z,8
2022-12-04T21:08:41.824Z,4
2022-12-04T21:11:13.455Z,5
2022-12-04T21:13:44.822Z,23
2022-12-04T21:16:16.176Z,13
2022-12-04T21:18:47.629Z,8
2022-12-04T21:21:19.154Z,4
2022-12-04T21:23:50.140Z,8
2022-12-04T21:26:21.632Z,8
2022-12-04T21:28:52.791Z,8
2022-12-04T21:31:24.318Z,8
2022-12-04T21:33:55.402Z,8
2022-12-04T21:36:26.649Z,12
2022-12-04T21:38:58.110Z,5
2022-12-04T21:41:29.280Z,8
2022-12-04T21:44:00.449Z,8
2022-12-04T21:46:31.844Z,5
2022-12-04T21:49:02.648Z,7
2022-12-04T21:51:56.070Z,8
2022-12-04T21:54:05.369Z,7
2022-12-04T21:56:36.586Z,7
2022-12-04T21:59:09.349Z,8
2022-12-04T22:01:40.709Z,4
2022-12-04T22:04:13.544Z,4
2022-12-04T22:06:45.688Z,20
2022-12-04T22:09:17.529Z,8
2022-12-04T22:11:48.949Z,8
2022-12-04T22:14:20.021Z,5
2022-12-04T22:16:50.217Z,8
2022-12-04T22:19:21.640Z,8
2022-12-04T22:21:52.712Z,8
2022-12-04T22:24:23.694Z,8
2022-12-04T22:26:54.922Z,8
2022-12-04T22:29:48.978Z,4
2022-12-04T22:31:58.203Z,8
2022-12-04T22:34:29.303Z,8
2022-12-04T22:37:00.381Z,8
2022-12-04T22:39:31.586Z,10
2022-12-04T22:42:02.965Z,8
2022-12-04T22:44:34.006Z,4
2022-12-04T22:47:05.139Z,4
2022-12-04T22:49:36.597Z,4
2022-12-04T22:52:07.641Z,4
2022-12-04T22:54:38.558Z,5
2022-12-04T22:57:09.781Z,8
2022-12-04T22:59:41.119Z,4
2022-12-04T23:02:13.362Z,4
2022-12-04T23:04:44.578Z,4
2022-12-04T23:07:15.191Z,6
2022-12-04T23:09:46.066Z,5
2022-12-04T23:12:16.335Z,4
2022-12-04T23:14:47.453Z,4
2022-12-04T23:17:18.288Z,8
2022-12-04T23:19:48.401Z,5
2022-12-04T23:22:18.868Z,4
2022-12-04T23:24:49.435Z,4
2022-12-04T23:27:19.725Z,5
2022-12-04T23:29:53.896Z,8
2022-12-04T23:32:20.720Z,4
2022-12-04T23:34:51.377Z,4
2022-12-04T23:37:22.175Z,4
2022-12-04T23:39:52.884Z,5
2022-12-04T23:42:23.411Z,8
2022-12-04T23:44:53.769Z,4
2022-12-04T23:47:24.859Z,8
2022-12-04T23:49:55.561Z,4
2022-12-04T23:52:25.764Z,7
2022-12-04T23:54:56.483Z,8
2022-12-04T23:57:27.967Z,4
2022-12-04T23:59:58.957Z,10
